Time;durP1;ratioP1;P1;durP2;ratioP2;P2;SDS_P1;SDS_P2;PMS_P1;PMS_P2;Temp;Humidity;BMP_temperature;BMP_pressure;BME280_temperature;BME280_humidity;BME280_pressure;Samples;Min_cycle;Max_cycle;Signal;HPM_P1;HPM_P2
2022/04/13 00:00:31;;;;;;;2.15;0.85;;;18.30;49.50;;;;;;5072718;28;20039;-67
2022/04/13 00:02:57;;;;;;;0.98;0.80;;;18.30;49.50;;;;;;5073419;28;20079;-67
2022/04/13 00:05:23;;;;;;;1.60;0.80;;;18.30;49.60;;;;;;5073603;28;20040;-66
2022/04/13 00:07:49;;;;;;;1.23;0.70;;;18.30;49.60;;;;;;5072655;28;20043;-66
2022/04/13 00:10:15;;;;;;;2.15;1.05;;;18.30;49.60;;;;;;5073701;28;20526;-66
2022/04/13 00:12:41;;;;;;;2.03;0.73;;;18.30;49.60;;;;;;5071824;28;20051;-67
2022/04/13 00:15:08;;;;;;;1.83;0.90;;;18.30;49.70;;;;;;5073242;28;20170;-66
2022/04/13 00:17:35;;;;;;;1.50;0.88;;;18.30;49.70;;;;;;5073388;28;20040;-66
2022/04/13 00:20:02;;;;;;;1.90;0.70;;;18.20;49.70;;;;;;5072467;28;20123;-66
2022/04/13 00:22:28;;;;;;;2.15;1.00;;;18.20;49.70;;;;;;5073325;28;20032;-66
2022/04/13 00:24:53;;;;;;;1.30;0.70;;;18.20;49.70;;;;;;5071347;28;20428;-66
2022/04/13 00:27:19;;;;;;;1.88;0.90;;;18.20;49.70;;;;;;5071942;28;20040;-67
2022/04/13 00:29:44;;;;;;;1.30;1.08;;;18.20;49.70;;;;;;5071885;28;20033;-66
2022/04/13 00:32:10;;;;;;;1.60;0.90;;;18.20;49.70;;;;;;5071997;28;20037;-66
2022/04/13 00:34:36;;;;;;;2.92;0.90;;;18.20;49.70;;;;;;5071820;28;20450;-66
2022/04/13 00:37:02;;;;;;;1.98;0.90;;;18.20;49.70;;;;;;5071786;28;20072;-66
2022/04/13 00:39:27;;;;;;;1.83;0.98;;;18.20;49.70;;;;;;5071922;28;20046;-66
2022/04/13 00:42:03;;;;;;;1.35;0.85;;;18.10;49.70;;;;;;5072848;28;20045;-67
2022/04/13 00:44:29;;;;;;;1.85;0.77;;;18.20;49.70;;;;;;5072961;28;20041;-66
2022/04/13 00:46:57;;;;;;;2.42;1.00;;;18.10;49.70;;;;;;5055232;28;20143;-66
2022/04/13 00:49:24;;;;;;;1.67;1.13;;;18.20;49.70;;;;;;5071514;28;20090;-66
2022/04/13 00:51:50;;;;;;;2.75;1.38;;;18.10;49.70;;;;;;5071758;28;20043;-66
2022/04/13 00:54:18;;;;;;;2.33;1.00;;;18.10;49.70;;;;;;5072708;28;20032;-66
2022/04/13 00:56:47;;;;;;;1.23;0.80;;;18.20;50.50;;;;;;5071375;28;20044;-67
2022/04/13 00:59:14;;;;;;;1.60;1.00;;;18.10;49.70;;;;;;5071683;28;20041;-66
2022/04/13 01:01:42;;;;;;;1.77;0.98;;;18.10;49.70;;;;;;5070961;28;20052;-66
2022/04/13 01:04:11;;;;;;;1.73;1.23;;;18.10;49.70;;;;;;5071253;28;20396;-66
2022/04/13 01:06:41;;;;;;;1.50;1.33;;;18.10;49.70;;;;;;5071019;28;20044;-67
2022/04/13 01:09:07;;;;;;;1.95;1.00;;;18.10;49.80;;;;;;5071157;28;20533;-66
2022/04/13 01:11:33;;;;;;;1.38;0.90;;;18.10;49.70;;;;;;5071114;28;20051;-67
2022/04/13 01:14:02;;;;;;;1.17;0.98;;;18.10;49.70;;;;;;5072366;28;20040;-66
2022/04/13 01:16:27;;;;;;;1.27;1.00;;;18.10;49.70;;;;;;5072188;28;20051;-66
2022/04/13 01:18:54;;;;;;;2.22;1.10;;;18.10;49.80;;;;;;5070997;28;20045;-66
2022/04/13 01:21:37;;;;;;;1.05;0.80;;;18.10;49.80;;;;;;5071234;28;20048;-66
2022/04/13 01:24:07;;;;;;;1.95;1.00;;;18.10;49.80;;;;;;5071372;28;20045;-67
2022/04/13 01:26:32;;;;;;;1.50;1.10;;;18.10;49.80;;;;;;5072226;28;20036;-66
2022/04/13 01:28:58;;;;;;;2.33;1.45;;;18.10;49.80;;;;;;5070716;28;20476;-66
2022/04/13 01:31:23;;;;;;;2.45;1.30;;;18.10;49.80;;;;;;5072127;28;20302;-67
2022/04/13 01:33:49;;;;;;;2.40;1.00;;;18.10;49.80;;;;;;5070759;28;20037;-66
2022/04/13 01:36:16;;;;;;;2.38;1.33;;;18.10;49.90;;;;;;5070725;28;20045;-66
2022/04/13 01:38:41;;;;;;;2.38;0.93;;;18.10;49.80;;;;;;5070727;28;20149;-66
2022/04/13 01:41:07;;;;;;;1.83;1.08;;;18.10;49.90;;;;;;5070808;28;20131;-66
2022/04/13 01:43:33;;;;;;;1.60;1.23;;;18.10;49.90;;;;;;5071830;28;20499;-66
2022/04/13 01:45:58;;;;;;;2.28;1.17;;;18.00;49.80;;;;;;5070696;28;20463;-66
2022/04/13 01:48:24;;;;;;;2.70;1.10;;;18.00;49.80;;;;;;5070543;28;20040;-67
2022/04/13 01:50:50;;;;;;;1.77;0.90;;;18.00;49.90;;;;;;5070956;28;20046;-66
2022/04/13 01:53:16;;;;;;;2.63;1.00;;;18.00;49.90;;;;;;5070747;28;20434;-66
2022/04/13 01:55:42;;;;;;;2.35;0.93;;;18.00;49.90;;;;;;5071950;28;20120;-66
2022/04/13 01:58:07;;;;;;;2.78;1.38;;;18.00;49.90;;;;;;5070878;28;20399;-66
2022/04/13 02:00:33;;;;;;;1.73;1.20;;;18.00;49.90;;;;;;5070423;28;20056;-66
2022/04/13 02:02:59;;;;;;;1.58;1.20;;;18.00;49.90;;;;;;5071381;28;20060;-66
2022/04/13 02:05:25;;;;;;;1.77;0.90;;;18.00;49.90;;;;;;5070481;28;20081;-66
2022/04/13 02:07:51;;;;;;;2.00;0.93;;;17.90;49.90;;;;;;5071766;28;20033;-66
2022/04/13 02:10:17;;;;;;;2.13;1.02;;;18.00;50.00;;;;;;5070633;28;20392;-66
2022/04/13 02:12:44;;;;;;;1.48;1.10;;;18.00;50.00;;;;;;5070579;28;20056;-66
2022/04/13 02:15:10;;;;;;;2.58;1.10;;;17.90;50.00;;;;;;5071471;28;20044;-66
2022/04/13 02:17:38;;;;;;;1.40;1.05;;;17.90;50.00;;;;;;5070333;28;20407;-66
2022/04/13 02:20:05;;;;;;;1.85;1.08;;;17.90;50.00;;;;;;5071560;28;20130;-66
2022/04/13 02:22:31;;;;;;;2.08;1.27;;;17.90;50.10;;;;;;5070403;28;20048;-66
2022/04/13 02:25:03;;;;;;;1.65;1.10;;;17.90;50.00;;;;;;5070180;28;20126;-66
2022/04/13 02:27:29;;;;;;;1.80;1.05;;;18.00;50.10;;;;;;5071540;28;20055;-67
2022/04/13 02:29:54;;;;;;;3.25;1.20;;;17.90;50.10;;;;;;5070034;28;20037;-66
2022/04/13 02:32:20;;;;;;;2.60;1.00;;;17.90;50.10;;;;;;5070261;28;20044;-66
2022/04/13 02:34:49;;;;;;;1.30;0.60;;;17.90;50.10;;;;;;5071412;28;20032;-66
2022/04/13 02:37:15;;;;;;;0.88;0.60;;;17.90;50.20;;;;;;5070202;28;20488;-66
2022/04/13 02:39:41;;;;;;;1.17;0.73;;;17.90;50.20;;;;;;5070118;28;20050;-66
2022/04/13 02:42:07;;;;;;;1.35;0.80;;;18.00;50.10;;;;;;5070007;28;20143;-67
2022/04/13 02:44:32;;;;;;;1.50;0.65;;;18.10;49.90;;;;;;5071381;28;20028;-66
2022/04/13 02:46:59;;;;;;;1.30;0.63;;;18.30;49.60;;;;;;5070093;28;20033;-66
2022/04/13 02:49:26;;;;;;;1.38;0.70;;;18.50;49.10;;;;;;5072617;28;20496;-67
2022/04/13 02:51:51;;;;;;;0.85;0.47;;;18.90;48.60;;;;;;5073760;28;20111;-66
2022/04/13 02:54:17;;;;;;;2.15;0.60;;;19.20;48.00;;;;;;5074078;28;20139;-66
2022/04/13 02:56:42;;;;;;;1.33;0.60;;;19.60;47.40;;;;;;5073031;28;20242;-66
2022/04/13 02:59:09;;;;;;;1.20;0.50;;;19.90;46.80;;;;;;5074712;28;20039;-67
2022/04/13 03:01:34;;;;;;;1.00;0.57;;;20.20;46.20;;;;;;5073242;28;20052;-66
2022/04/13 03:04:00;;;;;;;0.90;0.60;;;20.40;45.70;;;;;;5073893;28;20115;-66
2022/04/13 03:06:26;;;;;;;1.23;0.30;;;20.70;45.20;;;;;;5073376;28;20041;-67
2022/04/13 03:08:52;;;;;;;1.58;1.23;;;20.90;44.70;;;;;;5074849;28;20044;-66
2022/04/13 03:11:18;;;;;;;0.98;0.43;;;21.10;44.40;;;;;;5073414;28;20036;-66
2022/04/13 03:13:43;;;;;;;0.90;0.50;;;21.30;44.00;;;;;;5073706;28;20072;-67
2022/04/13 03:16:09;;;;;;;0.70;0.50;;;21.30;43.70;;;;;;5073211;28;20115;-66
2022/04/13 03:18:35;;;;;;;1.38;0.60;;;21.40;43.40;;;;;;5073320;28;20036;-66
2022/04/13 03:21:00;;;;;;;0.68;0.40;;;21.50;43.60;;;;;;5073546;28;20029;-67
2022/04/13 03:23:26;;;;;;;1.90;0.40;;;21.50;43.20;;;;;;5073524;28;20407;-66
2022/04/13 03:25:52;;;;;;;1.77;0.70;;;21.50;43.20;;;;;;5073241;28;20036;-66
2022/04/13 03:28:19;;;;;;;1.95;0.50;;;21.50;43.10;;;;;;5074439;28;20029;-66
2022/04/13 03:30:48;;;;;;;1.63;0.40;;;21.50;43.10;;;;;;5073003;28;20036;-66
2022/04/13 03:33:14;;;;;;;1.48;0.60;;;21.50;43.20;;;;;;5073010;28;20048;-66
2022/04/13 03:35:39;;;;;;;2.97;0.60;;;21.40;43.10;;;;;;5073291;28;20067;-67
2022/04/13 03:38:05;;;;;;;2.15;0.52;;;21.40;43.10;;;;;;5073332;28;20388;-66
2022/04/13 03:40:31;;;;;;;1.05;0.50;;;21.30;43.10;;;;;;5072931;28;20381;-66
2022/04/13 03:42:56;;;;;;;1.45;0.40;;;21.30;43.20;;;;;;5072800;28;20119;-66
2022/04/13 03:45:22;;;;;;;1.52;0.65;;;21.30;43.20;;;;;;5073094;28;20489;-66
2022/04/13 03:47:48;;;;;;;2.45;0.63;;;21.30;43.20;;;;;;5074307;28;20520;-67
2022/04/13 03:50:13;;;;;;;1.90;0.50;;;21.30;43.20;;;;;;5072789;28;20054;-67
2022/04/13 03:52:39;;;;;;;1.20;0.45;;;21.30;43.20;;;;;;5073935;28;20041;-66
2022/04/13 03:55:07;;;;;;;1.50;0.40;;;21.30;43.20;;;;;;5073916;28;20071;-66
2022/04/13 03:57:34;;;;;;;0.77;0.40;;;21.30;43.20;;;;;;5072623;28;20087;-66
2022/04/13 04:00:00;;;;;;;1.50;0.50;;;21.30;43.10;;;;;;5072449;28;20045;-66
2022/04/13 04:02:25;;;;;;;2.08;0.60;;;21.30;43.10;;;;;;5072201;28;20057;-66
2022/04/13 04:04:51;;;;;;;2.38;0.80;;;21.30;43.00;;;;;;5073740;28;20051;-67
2022/04/13 04:07:19;;;;;;;0.98;0.50;;;21.30;43.00;;;;;;5072696;28;20048;-66
2022/04/13 04:09:45;;;;;;;2.00;0.60;;;21.40;43.10;;;;;;5056048;28;20040;-66
2022/04/13 04:12:11;;;;;;;1.25;0.60;;;21.40;43.00;;;;;;5072321;28;20127;-66
2022/04/13 04:14:37;;;;;;;1.20;0.70;;;21.40;43.00;;;;;;5073692;28;20040;-66
2022/04/13 04:17:03;;;;;;;1.10;0.60;;;21.40;43.40;;;;;;5073415;28;20040;-66
2022/04/13 04:19:28;;;;;;;1.00;0.40;;;21.40;42.90;;;;;;5072108;28;20401;-66
2022/04/13 04:21:55;;;;;;;1.13;0.70;;;21.40;42.90;;;;;;5072086;28;20091;-66
2022/04/13 04:24:21;;;;;;;2.45;0.80;;;21.40;42.90;;;;;;5073379;28;20040;-66
2022/04/13 04:26:47;;;;;;;1.63;0.50;;;21.50;42.90;;;;;;5072137;28;20048;-66
2022/04/13 04:29:13;;;;;;;1.05;0.63;;;21.50;42.80;;;;;;5073247;28;20036;-66
2022/04/13 04:31:54;;;;;;;1.70;0.80;;;21.50;42.70;;;;;;5072154;28;20079;-66
2022/04/13 04:34:22;;;;;;;1.20;0.50;;;21.50;42.70;;;;;;5071844;28;20048;-66
2022/04/13 04:36:48;;;;;;;2.33;0.50;;;21.50;42.60;;;;;;5073279;28;20050;-66
2022/04/13 04:39:14;;;;;;;0.80;0.47;;;21.60;42.60;;;;;;5073006;28;20044;-66
2022/04/13 04:41:40;;;;;;;0.98;0.50;;;21.60;42.60;;;;;;5073472;28;20041;-66
2022/04/13 04:44:08;;;;;;;1.77;0.70;;;21.60;42.50;;;;;;5071525;28;20056;-66
2022/04/13 04:46:34;;;;;;;1.33;0.70;;;21.60;42.50;;;;;;5071885;28;20051;-67
2022/04/13 04:49:00;;;;;;;2.05;0.60;;;21.70;42.50;;;;;;5071614;28;20037;-66
2022/04/13 04:51:31;;;;;;;1.20;0.60;;;21.60;42.40;;;;;;5072794;28;20052;-66
2022/04/13 04:53:57;;;;;;;1.52;0.70;;;21.60;42.80;;;;;;5071764;28;20032;-66
2022/04/13 04:56:23;;;;;;;1.73;0.50;;;21.70;42.40;;;;;;5072655;28;20468;-67
2022/04/13 04:58:49;;;;;;;0.80;0.47;;;21.70;42.30;;;;;;5072598;28;20115;-66
2022/04/13 05:01:14;;;;;;;1.10;0.68;;;21.70;42.30;;;;;;5071476;28;20036;-67
2022/04/13 05:03:43;;;;;;;1.20;0.50;;;21.70;42.30;;;;;;5072253;28;20063;-67
2022/04/13 05:06:09;;;;;;;0.93;0.50;;;21.80;42.30;;;;;;5071437;28;20443;-66
2022/04/13 05:08:34;;;;;;;2.38;0.52;;;21.80;42.20;;;;;;5072605;28;20037;-67
2022/04/13 05:11:01;;;;;;;1.40;0.50;;;21.80;42.20;;;;;;5070919;28;20040;-67
2022/04/13 05:13:27;;;;;;;1.80;0.50;;;21.80;42.10;;;;;;5071059;28;20071;-66
2022/04/13 05:15:53;;;;;;;1.80;0.60;;;21.80;42.10;;;;;;5072180;28;20068;-67
2022/04/13 05:18:19;;;;;;;1.85;0.60;;;21.80;42.00;;;;;;5071371;28;20044;-66
2022/04/13 05:20:45;;;;;;;1.20;0.38;;;21.90;42.00;;;;;;5070743;28;20499;-67
2022/04/13 05:23:10;;;;;;;1.13;0.57;;;21.90;42.00;;;;;;5070917;28;20044;-67
2022/04/13 05:25:36;;;;;;;1.42;0.70;;;21.90;41.90;;;;;;5071173;28;20035;-66
2022/04/13 05:28:02;;;;;;;1.77;0.50;;;21.90;41.90;;;;;;5072230;28;20141;-67
2022/04/13 05:30:27;;;;;;;2.97;0.93;;;22.00;41.90;;;;;;5070998;28;20039;-66
2022/04/13 05:32:58;;;;;;;1.67;0.47;;;21.90;41.80;;;;;;5068203;28;20523;-72
2022/04/13 05:35:25;;;;;;;67.38;28.90;;;22.00;41.90;;;;;;5068498;28;20389;-67
2022/04/13 05:37:51;;;;;;;46.53;18.75;;;22.00;42.30;;;;;;5069571;28;20496;-68
2022/04/13 05:40:22;;;;;;;14.10;5.95;;;21.90;42.50;;;;;;5071947;28;20046;-66
2022/04/13 05:42:48;;;;;;;20.90;6.82;;;21.90;42.80;;;;;;5079306;28;20055;-67
2022/04/13 05:45:14;;;;;;;7.50;3.85;;;21.80;42.90;;;;;;5086736;28;20191;-64
2022/04/13 05:47:42;;;;;;;11.45;4.97;;;21.80;43.10;;;;;;5068378;28;20101;-66
2022/04/13 05:50:09;;;;;;;7.55;3.10;;;21.80;43.20;;;;;;5072448;28;20040;-66
2022/04/13 05:52:35;;;;;;;5.75;2.03;;;21.70;43.30;;;;;;5070841;28;20039;-66
2022/04/13 05:55:02;;;;;;;3.75;1.70;;;21.70;43.30;;;;;;5048776;28;20378;-66
2022/04/13 05:57:27;;;;;;;4.15;2.63;;;21.70;43.40;;;;;;5076114;28;20115;-66
2022/04/13 05:59:53;;;;;;;5.15;2.58;;;21.70;43.40;;;;;;5071335;28;20461;-66
2022/04/13 06:02:19;;;;;;;5.93;2.35;;;21.70;43.50;;;;;;5066941;28;20051;-66
2022/04/13 06:04:45;;;;;;;4.65;2.33;;;21.70;43.60;;;;;;5065136;28;20032;-66
2022/04/13 06:07:11;;;;;;;6.32;2.00;;;21.70;43.60;;;;;;5063542;28;20082;-66
2022/04/13 06:09:37;;;;;;;4.90;2.00;;;21.60;43.80;;;;;;5060627;28;20065;-66
2022/04/13 06:12:03;;;;;;;8.65;2.47;;;21.60;43.70;;;;;;5077249;28;20419;-66
2022/04/13 06:14:28;;;;;;;4.30;2.33;;;21.60;43.60;;;;;;5049561;28;20033;-67
2022/04/13 06:16:54;;;;;;;4.10;2.28;;;21.70;43.80;;;;;;5041617;28;20071;-66
2022/04/13 06:19:20;;;;;;;4.03;2.70;;;21.60;43.80;;;;;;5042396;28;20041;-67
2022/04/13 06:21:45;;;;;;;4.72;2.90;;;21.60;43.90;;;;;;5042537;28;20028;-68
2022/04/13 06:24:11;;;;;;;4.43;2.55;;;21.60;43.90;;;;;;5048469;28;20040;-66
2022/04/13 06:26:37;;;;;;;4.35;2.45;;;21.60;44.00;;;;;;5035929;28;20480;-66
2022/04/13 06:29:03;;;;;;;6.35;2.75;;;21.60;44.10;;;;;;5044865;28;20033;-66
2022/04/13 06:31:29;;;;;;;11.60;2.95;;;21.60;44.50;;;;;;5053718;28;20546;-65
2022/04/13 06:33:54;;;;;;;7.57;3.40;;;21.60;44.80;;;;;;5056134;28;20082;-65
2022/04/13 06:36:20;;;;;;;9.98;4.00;;;21.60;45.00;;;;;;5050830;28;20047;-65
2022/04/13 06:38:46;;;;;;;6.20;3.40;;;21.60;45.00;;;;;;5051621;28;20481;-67
2022/04/13 06:41:12;;;;;;;6.03;2.72;;;21.60;45.00;;;;;;5049916;28;20043;-66
2022/04/13 06:43:39;;;;;;;7.47;2.28;;;21.70;45.00;;;;;;5050446;28;20075;-67
2022/04/13 06:46:05;;;;;;;6.22;2.50;;;21.70;45.10;;;;;;5052120;28;20033;-67
2022/04/13 06:48:37;;;;;;;3.92;2.17;;;21.70;45.00;;;;;;5052391;28;20060;-67
2022/04/13 06:51:03;;;;;;;5.07;1.92;;;21.80;45.00;;;;;;5053314;28;20216;-68
2022/04/13 06:53:29;;;;;;;7.07;2.10;;;21.90;45.00;;;;;;5051379;28;20024;-68
2022/04/13 06:55:54;;;;;;;6.32;1.88;;;21.90;45.00;;;;;;5050338;28;20586;-68
2022/04/13 06:58:23;;;;;;;3.63;1.95;;;22.00;45.10;;;;;;5056331;28;20033;-68
2022/04/13 07:00:49;;;;;;;4.97;2.30;;;22.00;45.00;;;;;;5052215;28;20040;-68
2022/04/13 07:03:14;;;;;;;3.40;2.13;;;22.00;45.10;;;;;;5055765;28;20168;-67
2022/04/13 07:05:40;;;;;;;3.90;2.08;;;22.00;45.10;;;;;;5055292;28;20143;-67
2022/04/13 07:08:07;;;;;;;4.55;2.05;;;22.10;45.10;;;;;;5048429;28;20040;-66
2022/04/13 07:10:33;;;;;;;5.40;2.50;;;22.10;45.20;;;;;;5042974;28;20050;-68
2022/04/13 07:12:59;;;;;;;5.18;2.13;;;22.10;45.30;;;;;;5050255;28;20744;-69
2022/04/13 07:15:25;;;;;;;4.50;1.73;;;22.10;45.20;;;;;;5049741;28;20041;-69
2022/04/13 07:17:51;;;;;;;6.30;1.83;;;22.10;45.10;;;;;;5051118;28;20047;-67
2022/04/13 07:20:17;;;;;;;5.20;2.20;;;22.10;45.10;;;;;;5051995;28;20958;-71
2022/04/13 07:25:24;;;;;;;5.80;1.85;;;22.10;45.10;;;;;;5107132;27;20458;-67
2022/04/13 07:27:50;;;;;;;3.13;1.63;;;22.20;45.10;;;;;;5092388;28;20762;-67
2022/04/13 07:30:16;;;;;;;4.13;2.17;;;22.20;45.20;;;;;;5094440;28;20075;-69
2022/04/13 07:32:46;;;;;;;6.43;2.00;;;22.10;45.20;;;;;;5090000;28;20043;-70
2022/04/13 07:35:13;;;;;;;4.45;1.83;;;22.10;45.40;;;;;;5089832;28;20574;-71
2022/04/13 07:37:40;;;;;;;4.28;1.60;;;22.10;45.50;;;;;;5094291;28;20100;-70
2022/04/13 07:40:10;;;;;;;5.20;1.23;;;22.10;45.60;;;;;;5096361;28;20039;-70
2022/04/13 07:42:36;;;;;;;2.22;1.08;;;22.00;45.70;;;;;;5114423;27;20040;-70
2022/04/13 07:45:03;;;;;;;3.58;1.00;;;22.00;45.90;;;;;;5099087;28;20051;-69
2022/04/13 07:47:29;;;;;;;5.55;1.55;;;21.90;46.10;;;;;;5096173;28;20092;-68
2022/04/13 07:49:55;;;;;;;7.25;0.85;;;21.90;46.20;;;;;;5111310;28;20449;-68
2022/04/13 07:52:23;;;;;;;4.47;1.30;;;21.90;46.30;;;;;;5096776;28;20658;-69
2022/04/13 07:54:49;;;;;;;3.80;1.05;;;21.90;46.50;;;;;;5098166;28;20040;-68
2022/04/13 07:57:15;;;;;;;3.38;0.98;;;21.80;46.50;;;;;;5097817;28;20044;-67
2022/04/13 07:59:41;;;;;;;3.03;1.42;;;21.80;46.60;;;;;;5098817;28;20667;-69
2022/04/13 08:02:07;;;;;;;3.42;1.05;;;21.80;46.80;;;;;;5097241;28;20040;-70
2022/04/13 08:04:34;;;;;;;6.85;1.75;;;21.80;46.80;;;;;;5113602;28;20039;-69
2022/04/13 08:07:00;;;;;;;3.30;1.52;;;21.80;47.00;;;;;;5094924;28;20340;-67
2022/04/13 08:09:26;;;;;;;3.92;1.65;;;21.80;47.00;;;;;;5100061;28;20606;-67
2022/04/13 08:11:52;;;;;;;5.55;1.38;;;21.80;47.10;;;;;;5095380;28;20082;-68
2022/04/13 08:14:20;;;;;;;6.30;1.40;;;21.80;47.20;;;;;;5095168;28;20050;-68
2022/04/13 08:16:45;;;;;;;3.28;1.30;;;21.80;48.10;;;;;;5094389;28;20071;-68
2022/04/13 08:19:11;;;;;;;3.53;1.30;;;21.80;47.30;;;;;;5112546;28;20079;-70
2022/04/13 08:21:38;;;;;;;7.07;1.40;;;21.80;47.40;;;;;;5114705;28;20781;-70
2022/04/13 08:24:05;;;;;;;9.82;2.10;;;21.80;47.60;;;;;;5098058;28;20707;-69
2022/04/13 08:26:31;;;;;;;6.57;1.63;;;21.80;47.90;;;;;;5099638;28;20040;-65
2022/04/13 08:28:57;;;;;;;7.90;1.40;;;21.70;48.00;;;;;;5098358;28;20483;-69
2022/04/13 08:31:23;;;;;;;10.18;1.55;;;21.80;48.10;;;;;;5099224;28;20044;-69
2022/04/13 08:33:48;;;;;;;11.05;1.90;;;21.70;48.20;;;;;;5097091;28;20039;-67
2022/04/13 08:36:14;;;;;;;7.65;2.00;;;21.70;48.20;;;;;;5086915;28;20063;-66
2022/04/13 08:38:40;;;;;;;7.97;1.40;;;21.80;48.40;;;;;;5083199;28;20044;-68
2022/04/13 08:41:33;;;;;;;10.63;1.40;;;21.80;48.30;;;;;;5084474;28;20048;-67
2022/04/13 08:44:07;;;;;;;5.70;1.02;;;21.80;48.40;;;;;;5083042;28;20041;-67
2022/04/13 08:46:36;;;;;;;4.05;1.50;;;21.80;48.30;;;;;;5084715;28;20044;-66
2022/04/13 08:49:04;;;;;;;5.90;1.42;;;21.80;48.30;;;;;;5084169;28;20044;-67
2022/04/13 08:51:33;;;;;;;5.28;1.80;;;21.90;48.30;;;;;;5084952;28;20043;-66
2022/04/13 08:54:21;;;;;;;3.85;1.35;;;21.80;48.30;;;;;;5085046;28;20046;-67
2022/04/13 08:56:55;;;;;;;5.47;1.27;;;21.80;48.50;;;;;;5082445;28;20676;-68
2022/04/13 09:02:26;;;;;;;9.88;1.95;;;21.80;48.60;;;;;;5068325;27;20479;-67
2022/04/13 09:04:56;;;;;;;8.45;1.38;;;21.80;48.90;;;;;;5061967;28;20063;-68
2022/04/13 09:07:27;;;;;;;7.72;1.55;;;21.80;48.90;;;;;;5065835;28;20040;-68
2022/04/13 09:09:55;;;;;;;8.57;1.52;;;21.80;48.80;;;;;;5101444;28;20082;-69
2022/04/13 09:12:22;;;;;;;6.18;1.30;;;21.80;48.80;;;;;;5072912;28;20052;-69
2022/04/13 09:14:48;;;;;;;5.45;1.33;;;21.80;48.80;;;;;;5067673;28;20043;-69
2022/04/13 09:17:13;;;;;;;7.25;1.38;;;21.80;48.80;;;;;;5069739;28;20650;-70
2022/04/13 09:19:47;;;;;;;7.35;1.25;;;21.80;48.80;;;;;;5072804;28;20862;-70
2022/04/13 09:22:15;;;;;;;9.65;1.35;;;21.90;48.80;;;;;;5071019;28;20040;-72
2022/04/13 09:24:42;;;;;;;6.57;1.02;;;21.90;48.80;;;;;;5071409;28;20127;-66
2022/04/13 09:27:09;;;;;;;3.65;1.38;;;21.90;48.70;;;;;;5071443;28;20524;-67
2022/04/13 09:29:36;;;;;;;9.15;1.88;;;22.00;48.60;;;;;;5075244;28;20048;-67
2022/04/13 09:32:02;;;;;;;5.45;1.25;;;21.90;48.60;;;;;;5069227;28;20040;-67
2022/04/13 09:34:28;;;;;;;6.25;1.95;;;21.90;48.50;;;;;;5104488;28;20811;-67
2022/04/13 09:36:55;;;;;;;5.47;1.65;;;22.00;48.70;;;;;;5101079;28;20048;-66
2022/04/13 09:39:21;;;;;;;7.53;1.60;;;21.90;48.70;;;;;;5072573;28;20037;-66
2022/04/13 09:41:47;;;;;;;5.60;2.22;;;21.90;48.80;;;;;;5069553;28;20036;-67
2022/04/13 09:44:14;;;;;;;6.93;1.70;;;21.90;48.80;;;;;;5075640;28;20136;-66
2022/04/13 09:46:41;;;;;;;8.80;2.08;;;21.80;48.80;;;;;;5069678;28;20052;-67
2022/04/13 09:49:15;;;;;;;7.15;1.88;;;21.90;48.80;;;;;;5073501;28;20120;-67
2022/04/13 09:51:47;;;;;;;7.45;1.33;;;21.80;48.80;;;;;;5077275;28;20093;-68
2022/04/13 09:54:13;;;;;;;10.90;1.33;;;21.80;48.70;;;;;;5072847;28;20075;-67
2022/04/13 09:56:46;;;;;;;5.95;1.20;;;21.90;48.70;;;;;;5076420;28;20036;-68
2022/04/13 09:59:23;;;;;;;8.25;1.75;;;22.00;48.90;;;;;;5101204;28;20044;-70
2022/04/13 10:01:49;;;;;;;4.90;1.00;;;22.00;48.70;;;;;;5067245;28;20146;-68
2022/04/13 10:04:23;;;;;;;4.93;1.17;;;22.10;48.70;;;;;;5062297;28;20047;-69
2022/04/13 10:06:49;;;;;;;9.43;1.08;;;22.10;48.60;;;;;;5067817;28;21048;-69
2022/04/13 10:09:19;;;;;;;5.68;1.20;;;22.20;48.50;;;;;;5068846;28;20098;-70
2022/04/13 10:12:03;;;;;;;6.45;0.75;;;22.30;48.60;;;;;;5067528;28;20048;-68
2022/04/13 10:14:29;;;;;;;9.43;1.40;;;22.30;48.50;;;;;;5058690;28;20482;-70
2022/04/13 10:17:04;;;;;;;7.18;1.23;;;22.30;48.20;;;;;;5048105;28;20144;-69
2022/04/13 10:19:30;;;;;;;11.98;1.23;;;22.30;48.20;;;;;;5060839;28;20053;-68
2022/04/13 10:21:59;;;;;;;6.15;0.80;;;22.40;48.30;;;;;;5056802;28;20052;-68
2022/04/13 10:24:28;;;;;;;8.23;1.10;;;22.40;48.30;;;;;;5057192;28;20040;-70
2022/04/13 10:27:16;;;;;;;9.50;0.90;;;22.50;48.20;;;;;;5056884;28;20050;-70
2022/04/13 10:29:43;;;;;;;5.05;1.10;;;22.40;48.00;;;;;;5052268;28;20733;-70
2022/04/13 10:32:16;;;;;;;6.93;1.20;;;22.50;48.00;;;;;;5080911;28;20098;-67
2022/04/13 10:34:57;;;;;;;5.32;1.15;;;22.50;48.00;;;;;;5077714;28;20574;-72
2022/04/13 10:37:24;;;;;;;4.53;1.13;;;22.50;48.00;;;;;;5062831;28;20158;-72
2022/04/13 10:39:52;;;;;;;4.53;1.42;;;22.50;48.00;;;;;;5063129;28;20054;-76
2022/04/13 10:42:19;;;;;;;7.65;1.50;;;22.50;48.30;;;;;;5065921;28;20439;-73
2022/04/13 10:56:11;;;;;;;5.55;1.08;;;22.40;48.50;;;;;;5123288;27;20415;-70
2022/04/13 11:01:30;;;;;;;3.90;0.82;;;22.40;48.50;;;;;;5101612;27;21042;-67
2022/04/13 11:03:57;;;;;;;3.92;0.80;;;22.40;48.00;;;;;;5101661;28;20048;-67
2022/04/13 11:06:24;;;;;;;3.95;1.20;;;22.30;47.70;;;;;;5095950;28;20039;-69
2022/04/13 11:11:38;;;;;;;3.58;0.55;;;22.30;47.80;;;;;;5124046;27;20299;-68
2022/04/13 11:14:18;;;;;;;3.38;0.80;;;22.20;47.70;;;;;;5122099;28;20042;-70
2022/04/13 11:16:44;;;;;;;4.65;0.90;;;22.20;47.70;;;;;;5111378;27;20091;-70
2022/04/13 11:27:16;;;;;;;2.22;0.65;;;22.10;47.70;;;;;;5106778;27;20367;-69
2022/04/13 11:29:45;;;;;;;1.92;0.40;;;22.10;47.60;;;;;;5112830;28;20085;-70
2022/04/13 11:32:13;;;;;;;3.47;0.50;;;22.10;47.60;;;;;;5098639;28;20371;-71
2022/04/13 11:40:13;;;;;;;2.05;0.50;;;22.10;47.60;;;;;;5119626;27;1147223;-69
2022/04/13 11:45:18;;;;;;;2.22;0.50;;;22.00;47.70;;;;;;5135680;27;1160167;-69
2022/04/13 11:47:55;;;;;;;1.42;0.35;;;21.90;47.70;;;;;;5127411;27;20051;-69
2022/04/13 11:50:23;;;;;;;2.17;0.30;;;21.90;47.80;;;;;;5125729;27;20046;-69
2022/04/13 11:53:10;;;;;;;1.70;0.35;;;21.90;47.80;;;;;;5124598;27;20035;-69
2022/04/13 11:58:22;;;;;;;2.40;0.50;;;21.90;47.70;;;;;;5129701;27;1156749;-68
2022/04/13 12:01:08;;;;;;;2.00;0.30;;;21.90;47.50;;;;;;5141608;27;20053;-71
2022/04/13 12:03:38;;;;;;;1.65;0.30;;;21.90;47.40;;;;;;5143268;27;20477;-70
2022/04/13 12:06:09;;;;;;;;;;;21.90;47.50;;;;;;5143680;27;20115;-69
2022/04/13 12:11:18;;;;;;;1.50;0.55;;;21.90;47.40;;;;;;5074478;28;20406;-63
2022/04/13 12:13:56;;;;;;;1.35;0.40;;;21.90;47.40;;;;;;5088682;28;20038;-69
2022/04/13 12:16:30;;;;;;;1.50;0.70;;;21.90;47.40;;;;;;5069753;28;20496;-69
2022/04/13 12:19:05;;;;;;;1.48;0.30;;;21.80;47.30;;;;;;5071276;28;20044;-69
2022/04/13 12:21:31;;;;;;;1.58;0.50;;;21.90;47.30;;;;;;5070904;28;20045;-70
2022/04/13 12:24:01;;;;;;;2.08;0.25;;;21.80;47.30;;;;;;5072228;28;20041;-70
2022/04/13 12:26:39;;;;;;;2.72;0.25;;;21.80;47.40;;;;;;5072666;28;20047;-70
2022/04/13 12:31:54;;;;;;;1.48;0.30;;;21.80;47.40;;;;;;5094394;27;20404;-69
2022/04/13 12:34:25;;;;;;;1.33;0.20;;;21.70;47.40;;;;;;5059847;28;20369;-70
2022/04/13 12:36:59;;;;;;;1.35;0.22;;;21.70;47.50;;;;;;5059228;28;20068;-70
2022/04/13 12:39:31;;;;;;;1.60;0.43;;;21.70;47.50;;;;;;5072733;28;20166;-70
2022/04/13 12:41:58;;;;;;;1.30;0.30;;;21.70;47.60;;;;;;5074746;28;20438;-69
2022/04/13 12:44:28;;;;;;;2.00;0.20;;;21.70;47.50;;;;;;5080993;28;20407;-68
2022/04/13 12:47:12;;;;;;;2.05;0.50;;;21.70;47.60;;;;;;5064301;28;20387;-70
2022/04/13 12:49:38;;;;;;;1.45;0.25;;;21.60;47.50;;;;;;5063202;28;20132;-70
2022/04/13 12:52:06;;;;;;;1.35;0.43;;;21.60;47.60;;;;;;5080423;28;20115;-70
2022/04/13 12:54:37;;;;;;;1.95;0.30;;;21.60;47.60;;;;;;5062852;28;20047;-69
2022/04/13 12:57:03;;;;;;;0.88;0.20;;;21.60;47.60;;;;;;5068004;28;20040;-71
2022/04/13 12:59:34;;;;;;;1.63;0.40;;;21.60;47.60;;;;;;5083371;28;20036;-68
2022/04/13 13:02:00;;;;;;;2.78;0.20;;;21.60;47.70;;;;;;5062677;28;20090;-69
2022/04/13 13:04:26;;;;;;;1.60;0.20;;;21.50;47.70;;;;;;5063089;28;20040;-68
2022/04/13 13:09:36;;;;;;;0.90;0.30;;;21.50;47.70;;;;;;5071831;28;20381;-63
2022/04/13 13:12:08;;;;;;;1.10;0.20;;;21.50;47.80;;;;;;5041255;28;20051;-69
2022/04/13 13:14:37;;;;;;;2.03;0.20;;;21.50;47.90;;;;;;5035788;28;20045;-70
2022/04/13 13:17:25;;;;;;;1.20;0.20;;;21.50;47.90;;;;;;5045361;28;20124;-69
2022/04/13 13:19:54;;;;;;;1.52;0.20;;;21.50;47.90;;;;;;5039336;28;20508;-69
2022/04/13 13:25:04;;;;;;;1.05;0.30;;;21.40;48.00;;;;;;5073947;27;20828;-68
2022/04/13 13:30:16;;;;;;;2.28;0.40;;;21.40;48.00;;;;;;5033729;28;20509;-70
2022/04/13 13:32:46;;;;;;;2.60;0.30;;;21.40;47.90;;;;;;5024068;28;20332;-71
2022/04/13 13:35:15;;;;;;;0.80;0.20;;;21.50;48.00;;;;;;5022988;28;20053;-70
2022/04/13 13:45:56;;;;;;;2.15;0.30;;;21.40;48.00;;;;;;5101521;27;20436;-69
2022/04/13 13:48:26;;;;;;;2.88;0.20;;;21.40;48.10;;;;;;5101289;28;20047;-68
2022/04/13 13:50:53;;;;;;;;;;;21.40;48.10;;;;;;5101749;28;20028;-70